Time;durP1;ratioP1;P1;durP2;ratioP2;P2;SDS_P1;SDS_P2;PMS_P1;PMS_P2;Temp;Humidity;BMP_temperature;BMP_pressure;BME280_temperature;BME280_humidity;BME280_pressure;Samples;Min_cycle;Max_cycle;Signal;HPM_P1;HPM_P2
2023/06/23 00:02:05;;;;;;;;;;;;;;;16.36;55.30;101044.91;5054418;28;1040;-51
2023/06/23 00:04:30;;;;;;;;;;;;;;;16.21;55.55;101031.91;5058646;28;1087;-48
2023/06/23 00:06:59;;;;;;;;;;;;;;;16.21;55.11;101034.63;5042829;28;1980;-49
2023/06/23 00:09:24;;;;;;;;;;;;;;;16.13;55.45;101041.47;5048448;28;910;-49
2023/06/23 00:11:50;;;;;;;;;;;;;;;16.20;55.09;101039.31;5055395;28;1175;-47
2023/06/23 00:14:15;;;;;;;;;;;;;;;17.35;57.26;101045.03;5030140;28;1064;-48
2023/06/23 00:16:41;;;;;;;;;;;;;;;17.13;57.62;101038.94;5058275;28;1448;-47
2023/06/23 00:19:06;;;;;;;;;;;;;;;16.82;57.24;101045.13;5058402;28;1091;-51
2023/06/23 00:21:32;;;;;;;;;;;;;;;16.59;56.83;101038.97;5056762;28;1139;-51
2023/06/23 00:23:57;;;;;;;;;;;;;;;16.50;56.33;101037.81;5046205;28;1040;-48
2023/06/23 00:26:25;;;;;;;;;;;;;;;16.50;55.96;101034.25;5057849;28;1980;-50
2023/06/23 00:28:51;;;;;;;;;;;;;;;16.45;55.55;101043.28;5050521;28;1051;-51
2023/06/23 00:31:17;;;;;;;;;;;;;;;16.37;55.56;101047.38;5034759;28;1162;-48
2023/06/23 00:33:45;;;;;;;;;;;;;;;16.31;55.57;101037.44;5057883;28;842;-51
2023/06/23 00:36:10;;;;;;;;;;;;;;;16.24;55.32;101039.59;5040059;28;1048;-51
2023/06/23 00:38:36;;;;;;;;;;;;;;;16.22;55.26;101044.53;5040294;28;1279;-49
2023/06/23 00:41:02;;;;;;;;;;;;;;;16.68;56.76;101049.47;5043655;28;1095;-50
2023/06/23 00:43:30;;;;;;;;;;;;;;;17.61;57.35;101047.78;5028582;28;1301;-49
2023/06/23 00:45:56;;;;;;;;;;;;;;;16.96;57.72;101039.13;5055657;28;1992;-49
2023/06/23 00:48:23;;;;;;;;;;;;;;;16.73;57.20;101039.31;5020493;28;1305;-50
2023/06/23 00:50:48;;;;;;;;;;;;;;;16.60;56.58;101035.13;5035397;28;1025;-51
2023/06/23 00:53:16;;;;;;;;;;;;;;;16.57;56.17;101027.44;5039856;28;1207;-49
2023/06/23 00:55:42;;;;;;;;;;;;;;;16.49;55.69;101033.41;5057547;28;1091;-51
2023/06/23 00:58:08;;;;;;;;;;;;;;;16.38;55.83;101043.53;5030238;28;904;-51
2023/06/23 01:00:34;;;;;;;;;;;;;;;16.38;55.40;101034.47;5036114;28;1117;-51
2023/06/23 01:02:59;;;;;;;;;;;;;;;16.31;55.43;101039.38;5039649;28;1457;-51
2023/06/23 01:05:26;;;;;;;;;;;;;;;16.33;55.01;101045.44;5057436;28;1199;-52
2023/06/23 01:07:57;;;;;;;;;;;;;;;16.25;55.20;101046.75;5057099;28;1992;-49
2023/06/23 01:10:37;;;;;;;;;;;;;;;17.02;57.25;101041.63;5018967;28;1132;-48
2023/06/23 01:13:09;;;;;;;;;;;;;;;17.14;57.68;101040.56;5037099;28;1104;-52
2023/06/23 01:15:35;;;;;;;;;;;;;;;16.80;57.06;101049.22;5038374;28;1544;-51
2023/06/23 01:18:13;;;;;;;;;;;;;;;16.64;56.78;101045.59;5057509;28;1012;-49
2023/06/23 01:20:39;;;;;;;;;;;;;;;16.52;56.43;101040.31;5039382;28;1069;-51
2023/06/23 01:23:20;;;;;;;;;;;;;;;16.42;56.06;101041.06;5038909;28;942;-51
2023/06/23 01:25:49;;;;;;;;;;;;;;;16.41;55.55;101047.66;5039479;28;1154;-50
2023/06/23 01:28:18;;;;;;;;;;;;;;;16.30;55.69;101046.78;5043246;28;1154;-52
2023/06/23 01:30:44;;;;;;;;;;;;;;;16.39;55.00;101039.69;5056971;28;1166;-47
2023/06/23 01:33:12;;;;;;;;;;;;;;;16.29;55.18;101053.34;5056031;28;1051;-50
2023/06/23 01:35:39;;;;;;;;;;;;;;;16.28;55.15;101048.13;5029349;28;1084;-50
2023/06/23 01:38:14;;;;;;;;;;;;;;;16.11;55.46;101054.59;5036000;28;1190;-52
2023/06/23 01:40:39;;;;;;;;;;;;;;;16.15;54.98;101052.16;5057177;28;1128;-52
2023/06/23 01:43:06;;;;;;;;;;;;;;;17.02;57.30;101058.13;5038805;28;1108;-48
2023/06/23 01:45:32;;;;;;;;;;;;;;;17.21;57.68;101055.72;5038711;28;1092;-49
2023/06/23 01:47:58;;;;;;;;;;;;;;;16.81;57.32;101059.94;5043100;28;2038;-49
2023/06/23 01:50:24;;;;;;;;;;;;;;;16.63;56.55;101058.47;5056525;28;1124;-52
2023/06/23 01:52:49;;;;;;;;;;;;;;;16.53;56.16;101055.69;5022261;28;1072;-48
2023/06/23 01:55:16;;;;;;;;;;;;;;;16.41;56.13;101061.38;5057039;28;1012;-50
2023/06/23 01:57:41;;;;;;;;;;;;;;;16.36;55.68;101062.16;5033966;28;1170;-48
2023/06/23 02:00:13;;;;;;;;;;;;;;;16.37;55.39;101063.84;5010310;28;1226;-51
2023/06/23 02:02:42;;;;;;;;;;;;;;;16.25;55.28;101060.47;5054933;28;1108;-50
2023/06/23 02:05:08;;;;;;;;;;;;;;;16.20;55.46;101057.66;5056592;28;1174;-49
2023/06/23 02:07:34;;;;;;;;;;;;;;;16.38;56.33;101054.53;5038630;28;1926;-50
2023/06/23 02:09:59;;;;;;;;;;;;;;;17.54;57.34;101064.56;5038254;28;1180;-52
2023/06/23 02:12:25;;;;;;;;;;;;;;;16.95;57.93;101067.72;5025306;28;1028;-48
2023/06/23 02:14:50;;;;;;;;;;;;;;;16.73;57.29;101066.78;5038336;28;1523;-48
2023/06/23 02:17:16;;;;;;;;;;;;;;;16.64;56.51;101056.56;5038399;28;1092;-49
2023/06/23 02:19:42;;;;;;;;;;;;;;;16.54;56.43;101057.34;5037885;28;1028;-50
2023/06/23 02:22:12;;;;;;;;;;;;;;;16.46;55.97;101060.59;5050193;28;1166;-52
2023/06/23 02:24:40;;;;;;;;;;;;;;;16.42;55.72;101054.78;5031392;28;1104;-50
2023/06/23 02:27:06;;;;;;;;;;;;;;;16.37;55.64;101058.34;5056016;28;1917;-52
2023/06/23 02:29:34;;;;;;;;;;;;;;;16.28;55.56;101053.63;5038384;28;1153;-48
2023/06/23 02:32:01;;;;;;;;;;;;;;;16.35;55.23;101066.00;5043772;28;1112;-50
2023/06/23 02:34:26;;;;;;;;;;;;;;;16.18;55.32;101073.59;5054901;28;1226;-49
2023/06/23 02:36:52;;;;;;;;;;;;;;;16.22;54.89;101077.47;5043567;28;1075;-50
2023/06/23 02:39:21;;;;;;;;;;;;;;;17.26;57.35;101085.13;5038609;28;1386;-50
2023/06/23 02:41:49;;;;;;;;;;;;;;;17.31;57.44;101079.66;5055948;28;1135;-50
2023/06/23 02:44:17;;;;;;;;;;;;;;;16.78;57.43;101082.44;5037819;28;1231;-50
2023/06/23 02:46:44;;;;;;;;;;;;;;;16.62;56.84;101086.19;5016923;28;1994;-49
2023/06/23 02:49:11;;;;;;;;;;;;;;;16.60;56.41;101087.28;5047060;28;1089;-49
2023/06/23 02:51:37;;;;;;;;;;;;;;;16.48;56.08;101081.19;5021934;28;1423;-50
2023/06/23 02:54:07;;;;;;;;;;;;;;;16.42;55.71;101083.09;5038107;28;1179;-51
2023/06/23 02:56:34;;;;;;;;;;;;;;;16.36;55.63;101083.31;5037704;28;1230;-48
2023/06/23 02:59:00;;;;;;;;;;;;;;;16.34;55.51;101085.47;5036508;28;1062;-53
2023/06/23 03:01:26;;;;;;;;;;;;;;;16.36;55.50;101088.81;5038039;28;1060;-53
2023/06/23 03:03:54;;;;;;;;;;;;;;;17.49;57.51;101085.72;5056232;28;999;-54
2023/06/23 03:06:20;;;;;;;;;;;;;;;17.16;57.61;101079.59;5052572;28;1910;-56
2023/06/23 03:08:47;;;;;;;;;;;;;;;16.81;57.35;101081.09;5019255;28;1230;-56
2023/06/23 03:11:14;;;;;;;;;;;;;;;16.70;56.62;101081.03;5053410;28;1121;-52
2023/06/23 03:13:40;;;;;;;;;;;;;;;16.53;56.45;101083.13;5055964;28;1175;-53
2023/06/23 03:16:05;;;;;;;;;;;;;;;16.52;55.86;101084.22;5038118;28;1243;-53
2023/06/23 03:18:32;;;;;;;;;;;;;;;16.49;55.61;101088.31;5037023;28;1239;-54
2023/06/23 03:20:58;;;;;;;;;;;;;;;16.33;55.85;101090.16;5055273;28;1270;-54
2023/06/23 03:23:23;;;;;;;;;;;;;;;16.33;55.38;101090.16;5036836;28;1203;-50
2023/06/23 03:25:49;;;;;;;;;;;;;;;16.30;55.32;101090.69;5037836;28;1219;-54
2023/06/23 03:28:19;;;;;;;;;;;;;;;16.22;55.58;101094.72;5037341;28;1910;-54
2023/06/23 03:30:45;;;;;;;;;;;;;;;16.24;55.21;101087.09;5037659;28;1203;-54
2023/06/23 03:33:16;;;;;;;;;;;;;;;16.14;55.25;101081.50;5058854;28;1269;-55
2023/06/23 03:35:42;;;;;;;;;;;;;;;16.13;55.11;101087.25;5029692;28;859;-54
2023/06/23 03:38:08;;;;;;;;;;;;;;;17.08;57.48;101090.03;5057493;28;1102;-52
2023/06/23 03:40:36;;;;;;;;;;;;;;;17.13;57.51;101094.72;5041234;28;1029;-53
2023/06/23 03:43:05;;;;;;;;;;;;;;;16.73;57.19;101088.75;5041120;28;1222;-54
2023/06/23 03:45:30;;;;;;;;;;;;;;;16.59;56.83;101091.16;5041498;28;1099;-53
2023/06/23 03:47:58;;;;;;;;;;;;;;;16.50;56.23;101084.50;5052839;28;1993;-54
2023/06/23 03:50:25;;;;;;;;;;;;;;;16.48;55.83;101086.69;5033910;28;1084;-54
2023/06/23 03:52:50;;;;;;;;;;;;;;;16.33;55.78;101092.91;5041173;28;1202;-54
2023/06/23 03:55:16;;;;;;;;;;;;;;;16.31;55.66;101086.00;5041684;28;1163;-52
2023/06/23 03:57:41;;;;;;;;;;;;;;;16.25;55.55;101093.38;5040376;28;1080;-51
2023/06/23 04:00:07;;;;;;;;;;;;;;;16.24;55.25;101083.50;5028970;28;926;-49
2023/06/23 04:02:39;;;;;;;;;;;;;;;16.16;55.51;101086.72;5058097;28;1052;-49
2023/06/23 04:05:04;;;;;;;;;;;;;;;17.29;57.15;101090.06;5027874;28;1179;-49
2023/06/23 04:07:30;;;;;;;;;;;;;;;16.97;57.45;101091.09;5027362;28;1981;-48
2023/06/23 04:09:56;;;;;;;;;;;;;;;16.67;57.36;101086.25;5058461;28;1068;-51
2023/06/23 04:12:21;;;;;;;;;;;;;;;16.52;56.93;101098.78;5057333;28;1071;-54
2023/06/23 04:14:48;;;;;;;;;;;;;;;16.49;56.48;101093.81;5058576;28;1103;-54
2023/06/23 04:17:13;;;;;;;;;;;;;;;16.50;55.73;101094.66;5056976;28;1116;-50
2023/06/23 04:19:39;;;;;;;;;;;;;;;16.45;55.76;101094.63;5044659;28;1024;-49
2023/06/23 04:22:05;;;;;;;;;;;;;;;16.32;55.59;101101.41;5039578;28;1171;-50
2023/06/23 04:24:31;;;;;;;;;;;;;;;16.29;55.81;101093.69;5045672;28;879;-51
2023/06/23 04:26:56;;;;;;;;;;;;;;;16.25;55.76;101096.13;5057365;28;1905;-52
2023/06/23 04:29:22;;;;;;;;;;;;;;;16.20;55.49;101087.84;5040583;28;1109;-52
2023/06/23 04:31:48;;;;;;;;;;;;;;;16.19;55.24;101084.28;5040824;28;1208;-50
2023/06/23 04:34:13;;;;;;;;;;;;;;;16.20;55.45;101096.94;5040397;28;1152;-51
2023/06/23 04:36:49;;;;;;;;;;;;;;;16.18;55.56;101095.53;5026958;28;921;-49
2023/06/23 04:39:19;;;;;;;;;;;;;;;17.34;57.29;101092.84;5057506;28;1195;-48
2023/06/23 04:41:46;;;;;;;;;;;;;;;16.89;57.51;101091.59;5057837;28;957;-54
2023/06/23 04:44:11;;;;;;;;;;;;;;;16.68;56.97;101099.69;5057112;28;1122;-50
2023/06/23 04:46:38;;;;;;;;;;;;;;;16.52;56.96;101097.94;5039771;28;1979;-47
2023/06/23 04:49:07;;;;;;;;;;;;;;;16.52;56.20;101108.94;5026090;28;1136;-51
2023/06/23 04:51:35;;;;;;;;;;;;;;;16.41;56.01;101103.38;5040814;28;1172;-50
2023/06/23 04:54:01;;;;;;;;;;;;;;;16.50;56.06;101103.72;5057795;28;1039;-51
2023/06/23 04:56:31;;;;;;;;;;;;;;;17.14;55.88;101098.25;5057940;28;1184;-51
2023/06/23 04:58:57;;;;;;;;;;;;;;;16.41;54.99;101092.41;5037805;28;1139;-51
2023/06/23 05:01:22;;;;;;;;;;;;;;;16.22;53.88;101094.72;5020754;28;1029;-49
2023/06/23 05:03:48;;;;;;;;;;;;;;;16.13;52.69;101098.22;5035762;28;1111;-50
2023/06/23 05:06:15;;;;;;;;;;;;;;;16.06;52.14;101101.19;5039786;28;1969;-52
2023/06/23 05:08:40;;;;;;;;;;;;;;;16.20;52.13;101093.34;5054861;28;1318;-57
2023/06/23 05:11:06;;;;;;;;;;;;;;;16.07;51.68;101092.72;5028598;28;1156;-54
2023/06/23 05:13:32;;;;;;;;;;;;;;;16.08;50.82;101099.03;5043848;28;1159;-56
2023/06/23 05:15:58;;;;;;;;;;;;;;;16.04;50.66;101095.16;5039381;28;1051;-54
2023/06/23 05:18:23;;;;;;;;;;;;;;;16.10;50.16;101104.25;5057223;28;1138;-59
2023/06/23 05:20:49;;;;;;;;;;;;;;;15.99;50.14;101104.19;5039004;28;1087;-50
2023/06/23 05:23:15;;;;;;;;;;;;;;;16.06;49.85;101106.66;5056966;28;1107;-55
2023/06/23 05:25:40;;;;;;;;;;;;;;;15.96;49.92;101104.66;5026150;28;1127;-54
2023/06/23 05:28:06;;;;;;;;;;;;;;;15.94;49.78;101098.63;5038928;28;1969;-53
2023/06/23 05:30:32;;;;;;;;;;;;;;;16.06;49.29;101104.78;5039149;28;1099;-58
2023/06/23 05:32:58;;;;;;;;;;;;;;;15.93;49.46;101107.13;5057187;28;1148;-57
2023/06/23 05:35:23;;;;;;;;;;;;;;;15.95;49.38;101103.03;5038868;28;1111;-57
2023/06/23 05:37:49;;;;;;;;;;;;;;;15.99;49.15;101100.59;5026265;28;1116;-54
2023/06/23 05:40:15;;;;;;;;;;;;;;;15.96;49.21;101106.59;5056773;28;1044;-55
2023/06/23 05:42:40;;;;;;;;;;;;;;;16.01;48.79;101112.13;5056880;28;1055;-55
2023/06/23 05:45:06;;;;;;;;;;;;;;;15.96;49.03;101110.16;5056666;28;1028;-53
2023/06/23 05:47:42;;;;;;;;;;;;;;;15.92;49.18;101109.03;5049568;28;1910;-59
2023/06/23 05:50:11;;;;;;;;;;;;;;;15.91;49.00;101110.13;5044358;28;1266;-56
2023/06/23 05:52:37;;;;;;;;;;;;;;;15.93;48.99;101112.63;5055117;28;1250;-56
2023/06/23 05:55:03;;;;;;;;;;;;;;;15.98;48.81;101120.91;5027266;28;1260;-51
2023/06/23 05:57:29;;;;;;;;;;;;;;;16.74;50.93;101125.25;5038863;28;1021;-58
2023/06/23 05:59:58;;;;;;;;;;;;;;;16.28;51.15;101128.53;5030775;28;845;-56
2023/06/23 06:02:24;;;;;;;;;;;;;;;16.24;50.52;101127.41;5033874;28;1155;-58
2023/06/23 06:04:50;;;;;;;;;;;;;;;16.21;50.02;101127.94;5056709;28;1098;-55
2023/06/23 06:07:16;;;;;;;;;;;;;;;16.18;49.70;101120.22;5035761;28;1987;-57
2023/06/23 06:09:42;;;;;;;;;;;;;;;16.14;49.40;101113.59;5055993;28;1022;-51
2023/06/23 06:12:07;;;;;;;;;;;;;;;16.08;49.07;101110.81;5036397;28;1051;-56
2023/06/23 06:14:33;;;;;;;;;;;;;;;16.08;49.02;101116.31;5019376;28;1180;-56
2023/06/23 06:16:58;;;;;;;;;;;;;;;16.03;48.81;101104.47;5053073;28;1103;-57
2023/06/23 06:19:24;;;;;;;;;;;;;;;16.04;48.90;101101.44;5038993;28;1150;-58
2023/06/23 06:21:50;;;;;;;;;;;;;;;15.97;49.16;101100.84;5022064;28;1092;-56
2023/06/23 06:24:15;;;;;;;;;;;;;;;16.12;48.62;101115.78;5048143;28;910;-53
2023/06/23 06:26:43;;;;;;;;;;;;;;;15.98;48.91;101110.75;5029199;28;1987;-54
2023/06/23 06:29:08;;;;;;;;;;;;;;;16.08;48.48;101101.78;5034044;28;1056;-56
2023/06/23 06:31:36;;;;;;;;;;;;;;;16.08;48.36;101112.75;5056005;28;1152;-55
2023/06/23 06:34:02;;;;;;;;;;;;;;;16.16;48.31;101111.41;5041082;28;1059;-56
2023/06/23 06:36:28;;;;;;;;;;;;;;;16.06;48.57;101110.25;5025328;28;1172;-56
2023/06/23 06:38:53;;;;;;;;;;;;;;;16.04;48.50;101106.94;5052015;28;1040;-57
2023/06/23 06:41:19;;;;;;;;;;;;;;;16.08;48.39;101094.34;5055720;28;1215;-55
2023/06/23 06:43:44;;;;;;;;;;;;;;;16.76;50.22;101118.41;5038478;28;1119;-48
2023/06/23 06:46:11;;;;;;;;;;;;;;;16.43;50.39;101106.69;5038048;28;1909;-55
2023/06/23 06:48:37;;;;;;;;;;;;;;;16.32;49.83;101104.97;5035043;28;1172;-50
2023/06/23 06:51:02;;;;;;;;;;;;;;;16.25;49.59;101096.94;5047407;28;1152;-54
2023/06/23 06:53:28;;;;;;;;;;;;;;;16.27;49.20;101090.38;5037912;28;1048;-54
2023/06/23 06:55:53;;;;;;;;;;;;;;;16.22;49.11;101099.41;5055618;28;1433;-54
2023/06/23 06:58:19;;;;;;;;;;;;;;;16.25;48.89;101090.66;5055706;28;1040;-51
2023/06/23 07:00:44;;;;;;;;;;;;;;;16.17;48.77;101091.97;5037059;28;988;-55
2023/06/23 07:03:11;;;;;;;;;;;;;;;16.29;48.30;101086.28;5038339;28;1045;-58
2023/06/23 07:05:37;;;;;;;;;;;;;;;16.21;48.71;101081.28;5037876;28;1178;-54
2023/06/23 07:08:03;;;;;;;;;;;;;;;16.18;48.73;101085.38;5058987;28;1993;-50
2023/06/23 07:10:29;;;;;;;;;;;;;;;16.18;48.64;101087.31;5041938;28;1144;-52
2023/06/23 07:12:54;;;;;;;;;;;;;;;16.27;48.37;101087.63;5056399;28;1067;-53
2023/06/23 07:15:20;;;;;;;;;;;;;;;16.23;48.43;101085.41;5039745;28;1191;-51
2023/06/23 07:17:46;;;;;;;;;;;;;;;16.21;48.47;101078.53;5049837;28;1160;-51
2023/06/23 07:20:11;;;;;;;;;;;;;;;16.14;48.48;101083.44;5059477;28;1156;-55
2023/06/23 07:22:37;;;;;;;;;;;;;;;16.29;48.38;101083.53;5059549;28;1052;-57
2023/06/23 07:25:02;;;;;;;;;;;;;;;16.08;48.38;101082.56;5056271;28;1013;-57
2023/06/23 07:27:28;;;;;;;;;;;;;;;16.24;48.43;101080.75;5048538;28;1909;-56
2023/06/23 07:29:53;;;;;;;;;;;;;;;16.21;48.15;101092.25;5059590;28;1100;-53
2023/06/23 07:32:19;;;;;;;;;;;;;;;16.16;48.41;101083.97;5059422;28;1183;-56
2023/06/23 07:34:44;;;;;;;;;;;;;;;16.24;48.29;101083.50;5059341;28;1052;-55
2023/06/23 07:37:10;;;;;;;;;;;;;;;16.11;48.58;101081.22;5059239;28;997;-55
2023/06/23 07:39:36;;;;;;;;;;;;;;;16.13;48.54;101079.88;5056783;28;1083;-55
2023/06/23 07:42:02;;;;;;;;;;;;;;;16.19;48.54;101081.53;5048595;28;1122;-52
2023/06/23 07:44:27;;;;;;;;;;;;;;;16.15;48.54;101085.09;5058258;28;1083;-54
2023/06/23 07:46:53;;;;;;;;;;;;;;;16.17;48.44;101080.16;5058840;28;1906;-51
2023/06/23 07:49:18;;;;;;;;;;;;;;;16.22;48.13;101083.75;5055591;28;1223;-55
2023/06/23 07:51:44;;;;;;;;;;;;;;;16.20;48.33;101090.59;5059013;28;1067;-53
2023/06/23 07:54:10;;;;;;;;;;;;;;;16.19;48.44;101081.53;5058030;28;1140;-54
2023/06/23 07:56:35;;;;;;;;;;;;;;;16.20;48.29;101085.94;5059109;28;1091;-54
2023/06/23 07:59:01;;;;;;;;;;;;;;;16.13;48.60;101090.00;5058653;28;1012;-53
2023/06/23 08:01:26;;;;;;;;;;;;;;;16.09;48.55;101084.22;5058765;28;1501;-56
2023/06/23 08:03:52;;;;;;;;;;;;;;;16.12;48.62;101085.59;5058707;28;1092;-56
2023/06/23 08:06:23;;;;;;;;;;;;;;;16.21;48.44;101086.78;5058809;28;1906;-54
2023/06/23 08:08:49;;;;;;;;;;;;;;;16.19;48.23;101084.28;5058500;28;1012;-52
2023/06/23 08:11:14;;;;;;;;;;;;;;;16.19;48.21;101078.00;5058438;28;1118;-48
2023/06/23 08:13:40;;;;;;;;;;;;;;;16.22;48.19;101077.47;5038842;28;1079;-53
2023/06/23 08:16:05;;;;;;;;;;;;;;;16.23;48.33;101081.88;5058792;28;1103;-47
2023/06/23 08:18:31;;;;;;;;;;;;;;;16.15;48.30;101082.34;5057096;28;1024;-52
2023/06/23 08:20:56;;;;;;;;;;;;;;;16.18;48.48;101073.59;5058566;28;1043;-48
2023/06/23 08:23:22;;;;;;;;;;;;;;;16.19;48.33;101081.53;5058113;28;1028;-50
2023/06/23 08:25:48;;;;;;;;;;;;;;;16.17;48.37;101074.66;5049185;28;1179;-54
2023/06/23 08:28:13;;;;;;;;;;;;;;;16.15;48.61;101068.63;5053615;28;1974;-52
2023/06/23 08:30:38;;;;;;;;;;;;;;;16.25;48.16;101069.50;5057775;28;1144;-56
2023/06/23 08:33:04;;;;;;;;;;;;;;;16.25;48.53;101065.94;5058179;28;1229;-54
2023/06/23 08:35:30;;;;;;;;;;;;;;;16.31;48.26;101067.63;5058477;28;1175;-55
2023/06/23 08:37:55;;;;;;;;;;;;;;;16.20;48.30;101063.16;5055585;28;1111;-54
2023/06/23 08:40:21;;;;;;;;;;;;;;;16.21;48.30;101062.88;5051772;28;1242;-55
2023/06/23 08:42:46;;;;;;;;;;;;;;;16.28;48.39;101059.91;5057491;28;1124;-56
2023/06/23 08:45:14;;;;;;;;;;;;;;;16.18;48.42;101062.63;5057921;28;1246;-55
2023/06/23 08:47:41;;;;;;;;;;;;;;;16.16;48.55;101056.53;5057088;28;1910;-55
2023/06/23 08:50:07;;;;;;;;;;;;;;;16.17;48.65;101059.06;5057264;28;1266;-54
2023/06/23 08:52:33;;;;;;;;;;;;;;;16.23;48.48;101057.16;5057333;28;1159;-54
2023/06/23 08:54:58;;;;;;;;;;;;;;;16.24;48.50;101058.78;5039746;28;1183;-55
2023/06/23 08:57:24;;;;;;;;;;;;;;;16.24;48.29;101058.78;5057827;28;1179;-55
2023/06/23 08:59:49;;;;;;;;;;;;;;;16.21;48.41;101053.84;5057636;28;1055;-55
2023/06/23 09:02:15;;;;;;;;;;;;;;;16.23;48.56;101059.91;5053989;28;1140;-54
2023/06/23 09:04:41;;;;;;;;;;;;;;;16.29;48.28;101061.59;5057894;28;1038;-55
2023/06/23 09:07:06;;;;;;;;;;;;;;;16.23;48.42;101051.69;5040656;28;1910;-54
2023/06/23 09:09:32;;;;;;;;;;;;;;;16.30;48.26;101052.28;5030862;28;1060;-49
2023/06/23 09:11:58;;;;;;;;;;;;;;;16.31;48.34;101053.91;5057763;28;1130;-53
2023/06/23 09:14:26;;;;;;;;;;;;;;;16.23;48.42;101051.69;5028588;28;884;-49
2023/06/23 09:16:53;;;;;;;;;;;;;;;16.32;48.11;101046.50;5053575;28;1163;-55
2023/06/23 09:19:18;;;;;;;;;;;;;;;16.47;49.94;101048.53;5057487;28;1064;-55
2023/06/23 09:21:44;;;;;;;;;;;;;;;16.37;49.92;101049.31;5039667;28;1034;-55
2023/06/23 09:24:09;;;;;;;;;;;;;;;16.35;49.51;101038.56;5039119;28;1211;-54
2023/06/23 09:26:47;;;;;;;;;;;;;;;16.37;49.27;101036.38;5043733;28;1970;-54
2023/06/23 09:29:22;;;;;;;;;;;;;;;16.39;48.85;101036.94;5045642;28;1024;-53
2023/06/23 09:31:48;;;;;;;;;;;;;;;16.46;48.56;101030.41;5037995;28;1235;-53
2023/06/23 09:34:21;;;;;;;;;;;;;;;16.42;48.92;101039.16;5057238;28;1043;-51
2023/06/23 09:36:47;;;;;;;;;;;;;;;16.35;48.66;101035.81;5056310;28;1039;-55
2023/06/23 09:39:14;;;;;;;;;;;;;;;16.45;48.47;101037.78;5041457;28;1192;-54
2023/06/23 09:41:40;;;;;;;;;;;;;;;16.39;48.51;101033.38;5036791;28;1192;-56
2023/06/23 09:44:10;;;;;;;;;;;;;;;16.47;48.43;101038.38;5038955;28;1119;-56
2023/06/23 09:46:36;;;;;;;;;;;;;;;16.38;48.47;101037.19;5038982;28;1906;-54
2023/06/23 09:49:01;;;;;;;;;;;;;;;16.46;48.54;101044.94;5054724;28;1101;-55
2023/06/23 09:51:27;;;;;;;;;;;;;;;16.42;48.54;101050.16;5056745;28;1190;-55
2023/06/23 09:53:52;;;;;;;;;;;;;;;16.41;48.46;101059.47;5056755;28;1088;-52
2023/06/23 09:56:18;;;;;;;;;;;;;;;16.41;48.59;101048.50;5057118;28;1152;-53
2023/06/23 09:58:44;;;;;;;;;;;;;;;16.42;48.49;101044.66;5056233;28;1031;-50
2023/06/23 10:01:10;;;;;;;;;;;;;;;16.39;48.54;101042.44;5056080;28;1171;-55
2023/06/23 10:03:49;;;;;;;;;;;;;;;16.37;48.52;101041.88;5040140;28;1059;-53
2023/06/23 10:06:23;;;;;;;;;;;;;;;16.45;48.33;101042.47;5048896;28;1969;-50
2023/06/23 10:08:58;;;;;;;;;;;;;;;16.39;48.59;101031.44;5055937;28;1131;-52
2023/06/23 10:11:28;;;;;;;;;;;;;;;16.42;48.28;101039.16;5056533;28;1080;-52
2023/06/23 10:13:53;;;;;;;;;;;;;;;16.50;48.41;101042.50;5047745;28;1052;-53
2023/06/23 10:16:19;;;;;;;;;;;;;;;16.40;48.51;101041.34;5036453;28;1168;-53
2023/06/23 10:18:44;;;;;;;;;;;;;;;16.42;48.47;101043.81;5054264;28;1053;-51
2023/06/23 10:21:10;;;;;;;;;;;;;;;16.43;48.63;101029.81;5038178;28;1150;-50
2023/06/23 10:23:35;;;;;;;;;;;;;;;16.45;48.67;101031.47;5038883;28;1116;-51
2023/06/23 10:26:01;;;;;;;;;;;;;;;16.42;48.61;101039.16;5037996;28;1128;-54
2023/06/23 10:28:27;;;;;;;;;;;;;;;16.38;48.59;101031.72;5055276;28;1913;-51
2023/06/23 10:30:52;;;;;;;;;;;;;;;16.47;48.46;101030.13;5052429;28;1184;-51
2023/06/23 10:33:19;;;;;;;;;;;;;;;16.50;48.19;101035.09;5038173;28;1267;-49
2023/06/23 10:35:47;;;;;;;;;;;;;;;16.45;48.50;101026.00;5056146;28;1215;-52
2023/06/23 10:38:14;;;;;;;;;;;;;;;16.44;48.50;101025.19;5055441;28;1309;-52
2023/06/23 10:40:40;;;;;;;;;;;;;;;16.45;48.45;101031.47;5055220;28;1242;-50
2023/06/23 10:43:06;;;;;;;;;;;;;;;16.44;48.26;101030.66;5041400;28;1364;-51
2023/06/23 10:45:32;;;;;;;;;;;;;;;16.45;48.47;101023.25;5060162;28;1214;-53
2023/06/23 10:47:57;;;;;;;;;;;;;;;16.42;48.22;101028.19;5058748;28;1979;-54
2023/06/23 10:50:23;;;;;;;;;;;;;;;16.43;48.45;101010.63;5058623;28;1394;-54
2023/06/23 10:52:48;;;;;;;;;;;;;;;16.41;48.43;101021.03;5042001;28;1273;-53
2023/06/23 10:55:40;;;;;;;;;;;;;;;16.45;48.33;101020.50;5059704;28;1242;-53
2023/06/23 10:58:18;;;;;;;;;;;;;;;16.39;48.64;101019.66;5057270;28;1870;-53
2023/06/23 11:00:45;;;;;;;;;;;;;;;16.37;48.31;101010.88;5059347;28;1253;-52
2023/06/23 11:03:23;;;;;;;;;;;;;;;16.45;48.38;101009.53;5059383;28;1269;-51
2023/06/23 11:05:52;;;;;;;;;;;;;;;16.43;48.62;101007.88;5059073;28;1238;-54
2023/06/23 11:08:17;;;;;;;;;;;;;;;16.50;48.03;101013.13;5056903;28;1905;-50
2023/06/23 11:10:46;;;;;;;;;;;;;;;16.39;48.35;101006.75;5059156;28;1234;-55
2023/06/23 11:13:11;;;;;;;;;;;;;;;16.36;48.55;101006.47;5058823;28;1210;-52
2023/06/23 11:15:37;;;;;;;;;;;;;;;16.42;48.18;101003.50;5058771;28;1551;-51
2023/06/23 11:18:05;;;;;;;;;;;;;;;16.51;48.21;100997.47;5059796;28;1298;-52
2023/06/23 11:20:31;;;;;;;;;;;;;;;16.49;48.01;101005.97;5058537;28;1289;-53
2023/06/23 11:23:12;;;;;;;;;;;;;;;16.39;48.23;101000.44;5059795;28;1226;-54
2023/06/23 11:25:37;;;;;;;;;;;;;;;16.43;48.49;100999.63;5059015;28;1424;-54
2023/06/23 11:28:21;;;;;;;;;;;;;;;16.41;48.53;100993.59;5054004;28;1923;-54
2023/06/23 11:30:50;;;;;;;;;;;;;;;16.47;48.67;101001.88;5047968;28;1032;-55
2023/06/23 11:33:32;;;;;;;;;;;;;;;16.42;48.42;100995.25;5059361;28;1044;-55
2023/06/23 11:36:01;;;;;;;;;;;;;;;16.50;48.44;101002.13;5059895;28;1128;-55
2023/06/23 11:38:29;;;;;;;;;;;;;;;16.42;48.55;101005.38;5054265;28;1079;-54
2023/06/23 11:40:55;;;;;;;;;;;;;;;16.52;48.31;100993.63;5022279;28;1124;-54
2023/06/23 11:43:21;;;;;;;;;;;;;;;16.43;48.78;100988.66;5048303;28;1108;-53
2023/06/23 11:45:51;;;;;;;;;;;;;;;16.48;48.76;100987.03;5059192;28;1136;-55
2023/06/23 11:48:17;;;;;;;;;;;;;;;16.56;48.55;100997.50;5057585;28;1905;-52
2023/06/23 11:50:42;;;;;;;;;;;;;;;16.47;48.31;100999.13;5059120;28;1120;-52
2023/06/23 11:53:08;;;;;;;;;;;;;;;16.50;48.35;100995.84;5046326;28;1203;-55
2023/06/23 11:55:34;;;;;;;;;;;;;;;16.42;48.36;100988.91;5058796;28;1043;-54
2023/06/23 11:58:01;;;;;;;;;;;;;;;16.44;48.67;100997.72;5058623;28;1127;-55
2023/06/23 12:00:26;;;;;;;;;;;;;;;16.47;48.33;100997.19;5058451;28;1069;-49
2023/06/23 12:02:51;;;;;;;;;;;;;;;16.41;48.59;100992.75;5056698;28;1281;-50
2023/06/23 12:05:17;;;;;;;;;;;;;;;16.46;48.21;100992.78;5053891;28;1028;-49
2023/06/23 12:07:42;;;;;;;;;;;;;;;16.55;48.07;100990.34;5057994;28;1910;-46
2023/06/23 12:10:08;;;;;;;;;;;;;;;16.48;48.32;100990.63;5058472;28;1179;-49
2023/06/23 12:12:34;;;;;;;;;;;;;;;16.48;48.15;100992.50;5058223;28;1087;-48
2023/06/23 12:15:00;;;;;;;;;;;;;;;16.50;48.30;100993.09;5057860;28;1515;-51
2023/06/23 12:17:25;;;;;;;;;;;;;;;16.43;48.56;100996.06;5058299;28;1102;-52
2023/06/23 12:19:51;;;;;;;;;;;;;;;16.47;48.04;100982.66;5058531;28;1079;-53
2023/06/23 12:22:17;;;;;;;;;;;;;;;16.50;47.97;100982.09;5040816;28;1039;-51
2023/06/23 12:24:43;;;;;;;;;;;;;;;16.50;48.15;100974.69;5058097;28;1199;-50
2023/06/23 12:27:09;;;;;;;;;;;;;;;16.45;48.34;100980.16;5051950;28;1984;-50
2023/06/23 12:29:35;;;;;;;;;;;;;;;16.48;48.21;100973.31;5055417;28;1171;-49
2023/06/23 12:32:02;;;;;;;;;;;;;;;16.48;47.98;100970.56;5057630;28;1163;-53
2023/06/23 12:34:32;;;;;;;;;;;;;;;16.45;48.28;100966.41;5057537;28;1183;-51
2023/06/23 12:37:24;;;;;;;;;;;;;;;16.52;47.85;100966.19;5057534;28;1230;-52
2023/06/23 12:39:54;;;;;;;;;;;;;;;16.46;48.12;100975.50;5050097;28;1155;-50
2023/06/23 12:42:20;;;;;;;;;;;;;;;16.48;48.33;100978.78;5057887;28;1313;-49
2023/06/23 12:44:45;;;;;;;;;;;;;;;16.49;48.23;100970.28;5057759;28;1226;-52
2023/06/23 12:47:11;;;;;;;;;;;;;;;16.46;48.25;100976.31;5040325;28;1980;-53